• Join FlightAware (Why Join?)
  • Login
  • US Flag 
11:42PM EDT


 

Airport Tracker/Info


-or-


 

Live Flight TrackerFlight Track Log ✈ SWA4108 ✈ 27-Sep-2013 ✈ KBWI - KMHT

Flight Track Log - Related Links

Times and Time Zones

All times are in EDT time to prevent confusion due to time zone crossing. See the SWA4108 flight status page for this flight to view local times or setup timezone preferences in your user account.

Time Position Orientation Groundspeed Altitude Reporting Facility
EDT Latitude Longitude Course Direction KTS MPH feet Rate Location/Type
08:50AM 39.0875 -76.6986 153° Southeast 234 269 7,700  Level Washington Center
08:51AM 39.0297 -76.6364 140° Southeast 252 290 9,000 1,500 Climbing Washington Center
08:52AM 39.0033 -76.5478 111° Southeast 258 297 10,800 2,100 Climbing Washington Center
08:53AM 39.0356 -76.4386 69° East 259 298 13,300 2,820 Climbing Washington Center
08:54AM 39.0694 -76.3189 70° East 304 350 16,600 2,340 Climbing Washington Center
08:55AM 39.1036 -76.1881 71° East 347 399 18,000 660 Climbing Washington Center
08:56AM 39.1042 -76.0569 90° East 357 411 18,000 660 Level Washington Center
08:57AM 39.0650 -75.9258 111° Southeast 370 426 19,400 1,920 Climbing Washington Center
08:58AM 39.0986 -75.8003 71° East 355 409 21,900 1,680 Climbing Washington Center
08:59AM 39.1906 -75.7147 36° Northeast 351 404 22,900 1,740 Climbing Washington Center
09:00AM 39.2842 -75.6317 34° Northeast 372 428 25,400 2,280 Climbing Washington Center
09:01AM 39.3781 -75.5458 35° Northeast 395 455 27,500 1,860 Climbing Washington Center
09:02AM 39.4758 -75.4544 36° Northeast 414 476 29,200 1,800 Climbing Washington Center
09:03AM 39.5778 -75.3600 36° Northeast 436 502 31,100 1,980 Climbing Washington Center
09:04AM 39.6819 -75.2761 32° Northeast 441 507 33,200 2,040 Climbing Washington Center
09:05AM 39.7625 -75.2294 24° Northeast 437 503 34,700 960 Climbing New York Center
09:06AM 39.8803 -75.1478 28° Northeast 447 514 35,000 120 Climbing New York Center
09:07AM 39.9911 -75.0817 25° Northeast 440 506 35,000 540 Level New York Center
09:08AM 40.1000 -75.0094 27° Northeast 434 499 36,100 960 Climbing New York Center
09:09AM 40.2086 -74.9400 26° Northeast 434 499 37,000 420 Climbing New York Center
09:10AM 40.3192 -74.8786 23° Northeast 434 499 37,000  Level New York Center
09:11AM 40.4958 -74.8033 18° North 415 478 37,000  Level Boston Center
09:12AM 40.6072 -74.7556 18° North 415 478 37,000  Level Boston Center
09:13AM 40.7228 -74.7075 17° North 415 478 37,000  Level Boston Center
09:14AM 40.8364 -74.6539 20° North 426 490 37,000  Level Boston Center
09:15AM 40.9500 -74.6056 18° North 426 490 37,000  Level Boston Center
09:16AM 41.0633 -74.5572 18° North 426 490 37,000  Level Boston Center
09:17AM 41.1789 -74.5086 18° North 431 496 37,000  Level Boston Center
09:18AM 41.3069 -74.4544 18° North 431 496 37,000  Level Boston Center
09:19AM 41.4247 -74.4031 18° North 431 496 37,000  Level Boston Center
09:20AM 41.5400 -74.3539 18° North 431 496 37,000 -360 Level Boston Center
09:21AM 41.6536 -74.3017 19° North 431 496 36,300 -900 Descending Boston Center
09:22AM 41.7669 -74.2519 18° North 431 496 35,300 -1,080 Descending Boston Center
09:23AM 41.8781 -74.2022 18° North 419 482 34,200 -1,800 Descending Boston Center
09:24AM 42.0167 -74.1392 19° North 424 488 31,400 -2,340 Descending Boston Center
09:25AM 42.1278 -74.0917 18° North 424 488 29,000 -2,220 Descending Boston Center
09:26AM 42.2203 -74.0492 19° North 429 494 27,000 -2,040 Descending Boston Center
09:27AM 42.3425 -73.9456 32° Northeast 420 483 25,000 -1,680 Descending Boston Center
09:28AM 42.3842 -73.7892 70° East 405 466 23,800 -1,080 Descending Boston Center
09:29AM 42.4167 -73.6719 69° East 405 466 22,900 -1,140 Descending Boston Center
09:30AM 42.4619 -73.5122 69° East 394 453 21,600 -1,200 Descending Boston Center
09:31AM 42.4986 -73.3861 68° East 384 442 20,600 -1,020 Descending Boston Center
09:32AM 42.5350 -73.2458 71° East 383 441 19,600 -840 Descending Boston Center
09:33AM 42.5672 -73.1194 71° East 357 411 19,000 -360 Descending Boston Center
09:34AM 42.6033 -72.9931 69° East 357 411 19,000  Level Boston Center
09:35AM 42.6372 -72.8803 68° East 357 411 19,000  Level Boston Center
09:36AM 42.6731 -72.7508 69° East 357 411 19,000 -480 Level Boston Center
09:38AM 42.7067 -72.6236 70° East 352 405 18,000 -1,020 Descending Boston Center
09:39AM 42.7483 -72.4711 70° East 352 405 16,800 -1,620 Descending Boston Center
09:40AM 42.7817 -72.3467 70° East 347 399 14,800 -2,220 Descending Boston Center
09:41AM 42.7983 -72.2136 80° East 342 394 12,400 -2,160 Descending Boston Center
09:42AM 42.8083 -72.0978 83° East 334 384 10,600 -1,380 Descending Boston Center
09:43AM 42.8183 -71.9731 84° East 314 361 9,700 -1,140 Descending Boston Center
09:44AM 42.8264 -71.8797 83° East 285 328 8,400 -1,200 Descending Boston Center
09:45AM 42.8361 -71.7661 83° East 274 315 7,100 -1,680 Descending Boston Center
09:46AM 42.8125 -71.6675 108° East 238 274 4,700 -2,100 Descending Boston Center
09:47AM 42.8142 -71.5881 88° East 224 258 3,000 -1,320 Descending Boston Center
09:48AM 42.8553 -71.5422 39° Northeast 185 213 2,100 -840 Descending Boston Center
09:49AM 42.8883 -71.4992 44° Northeast 168 193 1,400 -720 Descending Boston Center
09:50AM 42.9153 -71.4650 43° Northeast 133 153 700 -540 Descending Boston Center
09:51AM 42.9400 -71.4361 41° Northeast 133 153 400 9,300 Descending Boston Center
09:52AM 42.9667 -71.4072 38° Northeast 133 153 19,000 9,420 Climbing Boston Center
09:53AM 42.9914 -71.3786 40° Northeast 133 153 19,000  Level Boston Center
09:54AM 43.0183 -71.3497 38° Northeast 133 153 19,000  Level Boston Center
09:55AM 43.0286 -71.3381 40° Northeast 133 153 19,000  Level Boston Center
09:57AM 42.9328 -71.4358 316° Northwest  Level Estimated
10:04AM 42.9328 -71.4358 316° Northwest  Level Estimated
10:05AM 42.9328 -71.4358 316° Northwest  Level Estimated
10:06AM 42.9328 -71.4358 316° Northwest  Level Estimated
10:07AM 42.9328 -71.4358 316° Northwest  Level Estimated
10:08AM 42.9328 -71.4358 316° Northwest  Level Estimated